PWSweather.com
Personal Weather Stations
Station Observations
KOHAVON11
Long Road Station, Avon, OH 44011

Long Road StationAvon, OH 44011

Lat: 41.437, Lon: -82.0477

Elevation: 686

Station Type: Davis Vantage Pro2

http://www.avon-weather.com

High Low Average
Temperature 40.4°F4.7°C 27.4°F-2.6°C 34.5°F1.4°C
Dew Point 29.1°F-1.6°C 17.2°F-8.2°C 23.7°F-4.6°C
Winds 18.0 mph 29.0 kmh Calm Calm 4.0 mph WSW6.4 kmh WSW
Wind Gusts 22.0 mph35.4 kmh -- 9.0 mph14.5 kmh
Humidity 86% 54% 66%
Pressure 30.23 in1023.7 mb 30.02 in1016.6 mb -
Precipitation 0.07 in1.8 mm - -
Hour Temp Dew Point Humidity Winds Wind Gusts Pressure Precip Precip Rate Daily Precip Total
12:00 AM 31.0°F-0.6°C 16.0°F-8.9°C 54% 10.0 mph WNW16.1 kmh WNW 21.0 mph33.8 kmh 30.18 in1022.0 mb 0.00 in0.0 mm 0.00 in0.0 mm 0.00 in0.0 mm
12:05 AM 30.9°F-0.6°C 15.9°F-8.9°C 54% 16.0 mph NW25.7 kmh NW 19.0 mph30.6 kmh 30.18 in1022.0 mb 0.00 in0.0 mm 0.00 in0.0 mm 0.00 in0.0 mm
12:10 AM 30.9°F-0.6°C 16.4°F-8.7°C 55% 7.0 mph W11.3 kmh W 19.0 mph30.6 kmh 30.18 in1022.0 mb 0.00 in0.0 mm 0.00 in0.0 mm 0.00 in0.0 mm
12:15 AM 31.0°F-0.6°C 16.5°F-8.6°C 55% 11.0 mph WNW17.7 kmh WNW 19.0 mph30.6 kmh 30.18 in1022.0 mb 0.00 in0.0 mm 0.00 in0.0 mm 0.00 in0.0 mm
12:20 AM 31.0°F-0.6°C 16.9°F-8.4°C 56% 11.0 mph W17.7 kmh W 19.0 mph30.6 kmh 30.18 in1022.0 mb 0.00 in0.0 mm 0.00 in0.0 mm 0.00 in0.0 mm
12:25 AM 31.1°F-0.5°C 16.5°F-8.6°C 55% 15.0 mph W24.1 kmh W 25.0 mph40.2 kmh 30.18 in1022.0 mb 0.00 in0.0 mm 0.00 in0.0 mm 0.00 in0.0 mm
12:30 AM 31.2°F-0.4°C 16.6°F-8.6°C 55% 12.0 mph WNW19.3 kmh WNW 25.0 mph40.2 kmh 30.19 in1022.4 mb 0.00 in0.0 mm 0.00 in0.0 mm 0.00 in0.0 mm
12:35 AM 31.2°F-0.4°C 16.6°F-8.6°C 55% 12.0 mph NW19.3 kmh NW 25.0 mph40.2 kmh 30.19 in1022.4 mb 0.00 in0.0 mm 0.00 in0.0 mm 0.00 in0.0 mm
12:40 AM 31.3°F-0.4°C 17.2°F-8.2°C 56% 13.0 mph WNW20.9 kmh WNW 25.0 mph40.2 kmh 30.19 in1022.4 mb 0.00 in0.0 mm 0.00 in0.0 mm 0.00 in0.0 mm
12:45 AM 31.3°F-0.4°C 17.2°F-8.2°C 56% 6.0 mph NW9.7 kmh NW 24.0 mph38.6 kmh 30.19 in1022.4 mb 0.00 in0.0 mm 0.00 in0.0 mm 0.00 in0.0 mm
12:50 AM 31.3°F-0.4°C 17.2°F-8.2°C 56% 6.0 mph WNW9.7 kmh WNW 24.0 mph38.6 kmh 30.18 in1022.0 mb 0.00 in0.0 mm 0.00 in0.0 mm 0.00 in0.0 mm
12:55 AM 31.3°F-0.4°C 17.6°F-8.0°C 57% 11.0 mph NW17.7 kmh NW 19.0 mph30.6 kmh 30.19 in1022.4 mb 0.00 in0.0 mm 0.00 in0.0 mm 0.00 in0.0 mm
01:00 AM 31.4°F-0.3°C 17.7°F-7.9°C 57% 13.0 mph W20.9 kmh W 19.0 mph30.6 kmh 30.19 in1022.4 mb 0.00 in0.0 mm 0.00 in0.0 mm 0.00 in0.0 mm
01:05 AM 31.3°F-0.4°C 17.2°F-8.2°C 56% 9.0 mph NW14.5 kmh NW 21.0 mph33.8 kmh 30.19 in1022.4 mb 0.00 in0.0 mm 0.00 in0.0 mm 0.00 in0.0 mm
01:10 AM 31.4°F-0.3°C 17.7°F-7.9°C 57% 3.0 mph WNW4.8 kmh WNW 21.0 mph33.8 kmh 30.19 in1022.4 mb 0.00 in0.0 mm 0.00 in0.0 mm 0.00 in0.0 mm
01:15 AM 31.4°F-0.3°C 17.7°F-7.9°C 57% 5.0 mph W8.0 kmh W 21.0 mph33.8 kmh 30.19 in1022.4 mb 0.00 in0.0 mm 0.00 in0.0 mm 0.00 in0.0 mm
01:20 AM 31.3°F-0.4°C 17.6°F-8.0°C 57% 5.0 mph NW8.0 kmh NW 21.0 mph33.8 kmh 30.19 in1022.4 mb 0.00 in0.0 mm 0.00 in0.0 mm 0.00 in0.0 mm
01:25 AM 31.4°F-0.3°C 17.7°F-7.9°C 57% 7.0 mph WNW11.3 kmh WNW 17.0 mph27.4 kmh 30.19 in1022.4 mb 0.00 in0.0 mm 0.00 in0.0 mm 0.00 in0.0 mm
01:30 AM 31.4°F-0.3°C 17.7°F-7.9°C 57% 5.0 mph W8.0 kmh W 17.0 mph27.4 kmh 30.19 in1022.4 mb 0.00 in0.0 mm 0.00 in0.0 mm 0.00 in0.0 mm
01:35 AM 31.4°F-0.3°C 17.7°F-7.9°C 57% 7.0 mph WNW11.3 kmh WNW 21.0 mph33.8 kmh 30.19 in1022.4 mb 0.00 in0.0 mm 0.00 in0.0 mm 0.00 in0.0 mm
01:40 AM 31.4°F-0.3°C 18.1°F-7.7°C 58% 4.0 mph W6.4 kmh W 21.0 mph33.8 kmh 30.19 in1022.4 mb 0.00 in0.0 mm 0.00 in0.0 mm 0.00 in0.0 mm
01:45 AM 31.3°F-0.4°C 18.0°F-7.8°C 58% 7.0 mph W11.3 kmh W 21.0 mph33.8 kmh 30.19 in1022.4 mb 0.00 in0.0 mm 0.00 in0.0 mm 0.00 in0.0 mm
01:50 AM 31.3°F-0.4°C 18.4°F-7.6°C 59% 9.0 mph W14.5 kmh W 21.0 mph33.8 kmh 30.19 in1022.4 mb 0.00 in0.0 mm 0.00 in0.0 mm 0.00 in0.0 mm
01:55 AM 31.3°F-0.4°C 18.4°F-7.6°C 59% 3.0 mph WSW4.8 kmh WSW 19.0 mph30.6 kmh 30.19 in1022.4 mb 0.00 in0.0 mm 0.00 in0.0 mm 0.00 in0.0 mm
02:00 AM 31.3°F-0.4°C 18.4°F-7.6°C 59% 4.0 mph WNW6.4 kmh WNW 19.0 mph30.6 kmh 30.19 in1022.4 mb 0.00 in0.0 mm 0.00 in0.0 mm 0.00 in0.0 mm
02:05 AM 31.3°F-0.4°C 18.8°F-7.3°C 60% 5.0 mph W8.0 kmh W 12.0 mph19.3 kmh 30.19 in1022.4 mb 0.00 in0.0 mm 0.00 in0.0 mm 0.00 in0.0 mm
02:10 AM 31.1°F-0.5°C 18.6°F-7.4°C 60% 3.0 mph W4.8 kmh W 12.0 mph19.3 kmh 30.19 in1022.4 mb 0.00 in0.0 mm 0.00 in0.0 mm 0.00 in0.0 mm
02:15 AM 31.0°F-0.6°C 18.1°F-7.7°C 59% 3.0 mph WSW4.8 kmh WSW 8.0 mph12.9 kmh 30.19 in1022.4 mb 0.00 in0.0 mm 0.00 in0.0 mm 0.00 in0.0 mm
02:20 AM 30.8°F-0.7°C 18.4°F-7.6°C 60% 3.0 mph WSW4.8 kmh WSW 9.0 mph14.5 kmh 30.19 in1022.4 mb 0.00 in0.0 mm 0.00 in0.0 mm 0.00 in0.0 mm
02:25 AM 30.6°F-0.8°C 18.6°F-7.4°C 61% 5.0 mph WSW8.0 kmh WSW 9.0 mph14.5 kmh 30.19 in1022.4 mb 0.00 in0.0 mm 0.00 in0.0 mm 0.00 in0.0 mm
02:30 AM 30.6°F-0.8°C 18.6°F-7.4°C 61% 8.0 mph WSW12.9 kmh WSW 12.0 mph19.3 kmh 30.19 in1022.4 mb 0.00 in0.0 mm 0.00 in0.0 mm 0.00 in0.0 mm
02:35 AM 30.5°F-0.8°C 18.9°F-7.3°C 62% 6.0 mph WSW9.7 kmh WSW 12.0 mph19.3 kmh 30.19 in1022.4 mb 0.00 in0.0 mm 0.00 in0.0 mm 0.00 in0.0 mm
02:40 AM 30.4°F-0.9°C 18.8°F-7.3°C 62% 5.0 mph W8.0 kmh W 12.0 mph19.3 kmh 30.19 in1022.4 mb 0.00 in0.0 mm 0.00 in0.0 mm 0.00 in0.0 mm
02:45 AM 30.3°F-0.9°C 18.7°F-7.4°C 62% 5.0 mph W8.0 kmh W 12.0 mph19.3 kmh 30.19 in1022.4 mb 0.00 in0.0 mm 0.00 in0.0 mm 0.00 in0.0 mm
02:50 AM 30.3°F-0.9°C 18.7°F-7.4°C 62% 3.0 mph WSW4.8 kmh WSW 7.0 mph11.3 kmh 30.19 in1022.4 mb 0.00 in0.0 mm 0.00 in0.0 mm 0.00 in0.0 mm
02:55 AM 30.2°F-1.0°C 19.0°F-7.2°C 63% 2.0 mph W3.2 kmh W 7.0 mph11.3 kmh 30.19 in1022.4 mb 0.00 in0.0 mm 0.00 in0.0 mm 0.00 in0.0 mm
03:00 AM 30.2°F-1.0°C 19.0°F-7.2°C 63% 8.0 mph WSW12.9 kmh WSW 8.0 mph12.9 kmh 30.19 in1022.4 mb 0.00 in0.0 mm 0.00 in0.0 mm 0.00 in0.0 mm
03:05 AM 30.2°F-1.0°C 19.0°F-7.2°C 63% 5.0 mph WSW8.0 kmh WSW 8.0 mph12.9 kmh 30.19 in1022.4 mb 0.00 in0.0 mm 0.00 in0.0 mm 0.00 in0.0 mm
03:10 AM 30.2°F-1.0°C 19.3°F-7.1°C 64% 5.0 mph WSW8.0 kmh WSW 8.0 mph12.9 kmh 30.19 in1022.4 mb 0.00 in0.0 mm 0.00 in0.0 mm 0.00 in0.0 mm
03:15 AM 30.1°F-1.1°C 19.2°F-7.1°C 64% 3.0 mph W4.8 kmh W 8.0 mph12.9 kmh 30.19 in1022.4 mb 0.00 in0.0 mm 0.00 in0.0 mm 0.00 in0.0 mm
03:20 AM 30.1°F-1.1°C 19.2°F-7.1°C 64% 6.0 mph WSW9.7 kmh WSW 9.0 mph14.5 kmh 30.19 in1022.4 mb 0.00 in0.0 mm 0.00 in0.0 mm 0.00 in0.0 mm
03:25 AM 30.0°F-1.1°C 19.2°F-7.1°C 64% 9.0 mph WSW14.5 kmh WSW 9.0 mph14.5 kmh 30.19 in1022.4 mb 0.00 in0.0 mm 0.00 in0.0 mm 0.00 in0.0 mm
03:30 AM 30.0°F-1.1°C 19.2°F-7.1°C 64% 5.0 mph WSW8.0 kmh WSW 9.0 mph14.5 kmh 30.19 in1022.4 mb 0.00 in0.0 mm 0.00 in0.0 mm 0.00 in0.0 mm
03:35 AM 30.0°F-1.1°C 19.5°F-6.9°C 65% 3.0 mph WSW4.8 kmh WSW 9.0 mph14.5 kmh 30.19 in1022.4 mb 0.00 in0.0 mm 0.00 in0.0 mm 0.00 in0.0 mm
03:40 AM 29.9°F-1.2°C 19.4°F-7.0°C 65% 3.0 mph WSW4.8 kmh WSW 7.0 mph11.3 kmh 30.19 in1022.4 mb 0.00 in0.0 mm 0.00 in0.0 mm 0.00 in0.0 mm
03:45 AM 29.9°F-1.2°C 19.8°F-6.8°C 66% 3.0 mph W4.8 kmh W 7.0 mph11.3 kmh 30.19 in1022.4 mb 0.00 in0.0 mm 0.00 in0.0 mm 0.00 in0.0 mm
03:50 AM 29.9°F-1.2°C 19.8°F-6.8°C 66% 3.0 mph WSW4.8 kmh WSW 6.0 mph9.7 kmh 30.19 in1022.4 mb 0.00 in0.0 mm 0.00 in0.0 mm 0.00 in0.0 mm
03:55 AM 29.8°F-1.2°C 20.1°F-6.6°C 67% 2.0 mph W3.2 kmh W 6.0 mph9.7 kmh 30.19 in1022.4 mb 0.00 in0.0 mm 0.00 in0.0 mm 0.00 in0.0 mm
04:00 AM 29.7°F-1.3°C 20.0°F-6.7°C 67% 2.0 mph WNW3.2 kmh WNW 7.0 mph11.3 kmh 30.20 in1022.7 mb 0.00 in0.0 mm 0.00 in0.0 mm 0.00 in0.0 mm
04:05 AM 29.6°F-1.3°C 20.2°F-6.6°C 68% 2.0 mph WSW3.2 kmh WSW 7.0 mph11.3 kmh 30.20 in1022.7 mb 0.00 in0.0 mm 0.00 in0.0 mm 0.00 in0.0 mm
04:10 AM 29.6°F-1.3°C 20.6°F-6.3°C 69% 5.0 mph WSW8.0 kmh WSW 7.0 mph11.3 kmh 30.20 in1022.7 mb 0.00 in0.0 mm 0.00 in0.0 mm 0.00 in0.0 mm
04:15 AM 29.5°F-1.4°C 20.8°F-6.2°C 70% 3.0 mph WSW4.8 kmh WSW 7.0 mph11.3 kmh 30.20 in1022.7 mb 0.00 in0.0 mm 0.00 in0.0 mm 0.00 in0.0 mm
04:20 AM 29.4°F-1.4°C 21.1°F-6.1°C 71% 3.0 mph WSW4.8 kmh WSW 7.0 mph11.3 kmh 30.20 in1022.7 mb 0.00 in0.0 mm 0.00 in0.0 mm 0.00 in0.0 mm
04:25 AM 29.3°F-1.5°C 21.3°F-5.9°C 72% 3.0 mph WNW4.8 kmh WNW 7.0 mph11.3 kmh 30.20 in1022.7 mb 0.00 in0.0 mm 0.00 in0.0 mm 0.00 in0.0 mm
04:30 AM 29.1°F-1.6°C 22.1°F-5.5°C 75% 3.0 mph W4.8 kmh W 7.0 mph11.3 kmh 30.20 in1022.7 mb 0.00 in0.0 mm 0.00 in0.0 mm 0.00 in0.0 mm
04:35 AM 28.9°F-1.7°C 22.6°F-5.2°C 77% 3.0 mph WSW4.8 kmh WSW 7.0 mph11.3 kmh 30.20 in1022.7 mb 0.00 in0.0 mm 0.00 in0.0 mm 0.00 in0.0 mm
04:40 AM 28.7°F-1.8°C 22.7°F-5.2°C 78% 3.0 mph W4.8 kmh W 8.0 mph12.9 kmh 30.20 in1022.7 mb 0.00 in0.0 mm 0.00 in0.0 mm 0.01 in0.3 mm
04:45 AM 28.5°F-1.9°C 22.8°F-5.1°C 79% 3.0 mph WSW4.8 kmh WSW 8.0 mph12.9 kmh 30.20 in1022.7 mb 0.00 in0.0 mm 0.00 in0.0 mm 0.01 in0.3 mm
04:50 AM 28.3°F-2.1°C 22.9°F-5.1°C 80% 3.0 mph WSW4.8 kmh WSW 8.0 mph12.9 kmh 30.20 in1022.7 mb 0.00 in0.0 mm 0.00 in0.0 mm 0.01 in0.3 mm
04:55 AM 28.2°F-2.1°C 23.1°F-4.9°C 81% 2.0 mph WSW3.2 kmh WSW 8.0 mph12.9 kmh 30.20 in1022.7 mb 0.00 in0.0 mm 0.00 in0.0 mm 0.01 in0.3 mm
05:00 AM 28.1°F-2.2°C 23.0°F-5.0°C 81% 1.0 mph WSW1.6 kmh WSW 5.0 mph8.0 kmh 30.19 in1022.4 mb 0.00 in0.0 mm 0.00 in0.0 mm 0.01 in0.3 mm
05:05 AM 28.0°F-2.2°C 23.2°F-4.9°C 82% 1.0 mph WSW1.6 kmh WSW 5.0 mph8.0 kmh 30.19 in1022.4 mb 0.00 in0.0 mm 0.00 in0.0 mm 0.01 in0.3 mm
05:10 AM 28.0°F-2.2°C 23.2°F-4.9°C 82% Calm Calm 3.0 mph4.8 kmh 30.19 in1022.4 mb 0.00 in0.0 mm 0.00 in0.0 mm 0.01 in0.3 mm
05:15 AM 28.0°F-2.2°C 23.2°F-4.9°C 82% Calm Calm -- 30.19 in1022.4 mb 0.00 in0.0 mm 0.00 in0.0 mm 0.01 in0.3 mm
05:20 AM 28.0°F-2.2°C 23.2°F-4.9°C 82% Calm Calm -- 30.19 in1022.4 mb 0.00 in0.0 mm 0.00 in0.0 mm 0.01 in0.3 mm
05:25 AM 28.0°F-2.2°C 23.5°F-4.7°C 83% Calm Calm 1.0 mph1.6 kmh 30.20 in1022.7 mb 0.00 in0.0 mm 0.00 in0.0 mm 0.01 in0.3 mm
05:30 AM 28.0°F-2.2°C 23.5°F-4.7°C 83% 5.0 mph WSW8.0 kmh WSW 6.0 mph9.7 kmh 30.20 in1022.7 mb 0.00 in0.0 mm 0.00 in0.0 mm 0.01 in0.3 mm
05:35 AM 28.1°F-2.2°C 23.6°F-4.7°C 83% 3.0 mph NW4.8 kmh NW 6.0 mph9.7 kmh 30.20 in1022.7 mb 0.00 in0.0 mm 0.00 in0.0 mm 0.01 in0.3 mm
05:40 AM 28.2°F-2.1°C 23.7°F-4.6°C 83% 3.0 mph WNW4.8 kmh WNW 7.0 mph11.3 kmh 30.20 in1022.7 mb 0.00 in0.0 mm 0.00 in0.0 mm 0.01 in0.3 mm
05:45 AM 28.2°F-2.1°C 23.7°F-4.6°C 83% 1.0 mph WNW1.6 kmh WNW 7.0 mph11.3 kmh 30.20 in1022.7 mb 0.00 in0.0 mm 0.00 in0.0 mm 0.01 in0.3 mm
05:50 AM 28.2°F-2.1°C 23.7°F-4.6°C 83% 2.0 mph WNW3.2 kmh WNW 7.0 mph11.3 kmh 30.20 in1022.7 mb 0.00 in0.0 mm 0.00 in0.0 mm 0.02 in0.5 mm
05:55 AM 28.2°F-2.1°C 24.0°F-4.4°C 84% 2.0 mph NW3.2 kmh NW 7.0 mph11.3 kmh 30.20 in1022.7 mb 0.00 in0.0 mm 0.00 in0.0 mm 0.02 in0.5 mm
06:00 AM 28.2°F-2.1°C 24.0°F-4.4°C 84% 4.0 mph WNW6.4 kmh WNW 6.0 mph9.7 kmh 30.20 in1022.7 mb 0.00 in0.0 mm 0.00 in0.0 mm 0.02 in0.5 mm
06:05 AM 28.3°F-2.1°C 24.1°F-4.4°C 84% Calm Calm 7.0 mph11.3 kmh 30.20 in1022.7 mb 0.00 in0.0 mm 0.00 in0.0 mm 0.02 in0.5 mm
06:10 AM 28.3°F-2.1°C 24.1°F-4.4°C 84% 2.0 mph WSW3.2 kmh WSW 7.0 mph11.3 kmh 30.20 in1022.7 mb 0.00 in0.0 mm 0.00 in0.0 mm 0.02 in0.5 mm
06:15 AM 28.3°F-2.1°C 24.4°F-4.2°C 85% 4.0 mph WSW6.4 kmh WSW 7.0 mph11.3 kmh 30.20 in1022.7 mb 0.00 in0.0 mm 0.00 in0.0 mm 0.02 in0.5 mm
06:20 AM 28.3°F-2.1°C 24.4°F-4.2°C 85% 4.0 mph W6.4 kmh W 7.0 mph11.3 kmh 30.20 in1022.7 mb 0.00 in0.0 mm 0.00 in0.0 mm 0.03 in0.8 mm
06:25 AM 28.3°F-2.1°C 24.4°F-4.2°C 85% 4.0 mph W6.4 kmh W 10.0 mph16.1 kmh 30.20 in1022.7 mb 0.00 in0.0 mm 0.00 in0.0 mm 0.03 in0.8 mm
06:30 AM 28.2°F-2.1°C 24.3°F-4.3°C 85% 3.0 mph WNW4.8 kmh WNW 10.0 mph16.1 kmh 30.20 in1022.7 mb 0.00 in0.0 mm 0.00 in0.0 mm 0.03 in0.8 mm
06:35 AM 28.2°F-2.1°C 24.3°F-4.3°C 85% 3.0 mph NW4.8 kmh NW 10.0 mph16.1 kmh 30.20 in1022.7 mb 0.04 in1.0 mm 0.48 in12.2 mm 0.04 in1.0 mm
06:40 AM 28.2°F-2.1°C 24.3°F-4.3°C 85% 4.0 mph NW6.4 kmh NW 10.0 mph16.1 kmh 30.20 in1022.7 mb 0.04 in1.0 mm 0.00 in0.0 mm 0.04 in1.0 mm
06:45 AM 28.1°F-2.2°C 24.2°F-4.3°C 85% 5.0 mph WNW8.0 kmh WNW 8.0 mph12.9 kmh 30.20 in1022.7 mb 0.04 in1.0 mm 0.00 in0.0 mm 0.04 in1.0 mm
06:50 AM 28.0°F-2.2°C 24.1°F-4.4°C 85% 4.0 mph WNW6.4 kmh WNW 10.0 mph16.1 kmh 30.20 in1022.7 mb 0.00 in0.0 mm 0.00 in0.0 mm 0.04 in1.0 mm
06:55 AM 27.8°F-2.3°C 23.9°F-4.5°C 85% 2.0 mph W3.2 kmh W 13.0 mph20.9 kmh 30.20 in1022.7 mb 0.00 in0.0 mm 0.00 in0.0 mm 0.05 in1.3 mm
07:00 AM 27.7°F-2.4°C 23.8°F-4.6°C 85% 4.0 mph WNW6.4 kmh WNW 13.0 mph20.9 kmh 30.20 in1022.7 mb 0.00 in0.0 mm 0.00 in0.0 mm 0.05 in1.3 mm
07:05 AM 27.5°F-2.5°C 23.9°F-4.5°C 86% 3.0 mph WNW4.8 kmh WNW 13.0 mph20.9 kmh 30.20 in1022.7 mb 0.00 in0.0 mm 0.00 in0.0 mm 0.05 in1.3 mm
07:10 AM 27.5°F-2.5°C 23.9°F-4.5°C 86% 2.0 mph WNW3.2 kmh WNW 13.0 mph20.9 kmh 30.20 in1022.7 mb 0.00 in0.0 mm 0.00 in0.0 mm 0.06 in1.5 mm
07:15 AM 27.5°F-2.5°C 23.9°F-4.5°C 86% 5.0 mph W8.0 kmh W 8.0 mph12.9 kmh 30.20 in1022.7 mb 0.00 in0.0 mm 0.00 in0.0 mm 0.06 in1.5 mm
07:20 AM 27.4°F-2.6°C 23.8°F-4.6°C 86% 1.0 mph WSW1.6 kmh WSW 8.0 mph12.9 kmh 30.20 in1022.7 mb 0.00 in0.0 mm 0.00 in0.0 mm 0.06 in1.5 mm
07:25 AM 27.4°F-2.6°C 23.8°F-4.6°C 86% 2.0 mph WSW3.2 kmh WSW 7.0 mph11.3 kmh 30.20 in1022.7 mb 0.00 in0.0 mm 0.00 in0.0 mm 0.06 in1.5 mm
07:30 AM 27.5°F-2.5°C 23.9°F-4.5°C 86% 1.0 mph WSW1.6 kmh WSW 7.0 mph11.3 kmh 30.20 in1022.7 mb 0.00 in0.0 mm 0.00 in0.0 mm 0.06 in1.5 mm
07:35 AM 27.5°F-2.5°C 23.9°F-4.5°C 86% 1.0 mph WSW1.6 kmh WSW 4.0 mph6.4 kmh 30.20 in1022.7 mb 0.00 in0.0 mm 0.00 in0.0 mm 0.07 in1.8 mm
07:40 AM 27.5°F-2.5°C 23.9°F-4.5°C 86% 1.0 mph WSW1.6 kmh WSW 4.0 mph6.4 kmh 30.20 in1022.7 mb 0.00 in0.0 mm 0.00 in0.0 mm 0.07 in1.8 mm
07:45 AM 27.5°F-2.5°C 23.9°F-4.5°C 86% 2.0 mph SW3.2 kmh SW 3.0 mph4.8 kmh 30.20 in1022.7 mb 0.00 in0.0 mm 0.00 in0.0 mm 0.07 in1.8 mm
07:50 AM 27.5°F-2.5°C 23.9°F-4.5°C 86% 2.0 mph SSW3.2 kmh SSW 4.0 mph6.4 kmh 30.20 in1022.7 mb 0.00 in0.0 mm 0.00 in0.0 mm 0.07 in1.8 mm
07:55 AM 27.6°F-2.4°C 24.0°F-4.4°C 86% 3.0 mph SW4.8 kmh SW 4.0 mph6.4 kmh 30.20 in1022.7 mb 0.00 in0.0 mm 0.00 in0.0 mm 0.07 in1.8 mm
08:00 AM 27.7°F-2.4°C 24.1°F-4.4°C 86% 2.0 mph SW3.2 kmh SW 4.0 mph6.4 kmh 30.21 in1023.0 mb 0.00 in0.0 mm 0.00 in0.0 mm 0.07 in1.8 mm
08:05 AM 27.8°F-2.3°C 24.2°F-4.3°C 86% 1.0 mph WSW1.6 kmh WSW 4.0 mph6.4 kmh 30.20 in1022.7 mb 0.00 in0.0 mm 0.00 in0.0 mm 0.07 in1.8 mm
08:10 AM 27.9°F-2.3°C 24.3°F-4.3°C 86% 3.0 mph SW4.8 kmh SW 5.0 mph8.0 kmh 30.21 in1023.0 mb 0.00 in0.0 mm 0.00 in0.0 mm 0.07 in1.8 mm
08:15 AM 28.0°F-2.2°C 24.4°F-4.2°C 86% 3.0 mph SW4.8 kmh SW 8.0 mph12.9 kmh 30.21 in1023.0 mb 0.00 in0.0 mm 0.00 in0.0 mm 0.07 in1.8 mm
08:20 AM 27.9°F-2.3°C 24.3°F-4.3°C 86% 7.0 mph WSW11.3 kmh WSW 8.0 mph12.9 kmh 30.21 in1023.0 mb 0.00 in0.0 mm 0.00 in0.0 mm 0.07 in1.8 mm
08:25 AM 27.8°F-2.3°C 24.2°F-4.3°C 86% 8.0 mph WSW12.9 kmh WSW 10.0 mph16.1 kmh 30.21 in1023.0 mb 0.00 in0.0 mm 0.00 in0.0 mm 0.07 in1.8 mm
08:30 AM 27.8°F-2.3°C 23.9°F-4.5°C 85% 4.0 mph WSW6.4 kmh WSW 10.0 mph16.1 kmh 30.21 in1023.0 mb 0.00 in0.0 mm 0.00 in0.0 mm 0.07 in1.8 mm
08:35 AM 28.5°F-1.9°C 24.0°F-4.4°C 83% 4.0 mph WSW6.4 kmh WSW 10.0 mph16.1 kmh 30.21 in1023.0 mb 0.00 in0.0 mm 0.00 in0.0 mm 0.07 in1.8 mm
08:40 AM 29.2°F-1.6°C 23.8°F-4.6°C 80% 7.0 mph SW11.3 kmh SW 11.0 mph17.7 kmh 30.21 in1023.0 mb 0.00 in0.0 mm 0.00 in0.0 mm 0.07 in1.8 mm
08:45 AM 29.7°F-1.3°C 23.7°F-4.6°C 78% 10.0 mph WSW16.1 kmh WSW 12.0 mph19.3 kmh 30.21 in1023.0 mb 0.00 in0.0 mm 0.00 in0.0 mm 0.07 in1.8 mm
08:50 AM 30.1°F-1.1°C 23.1°F-4.9°C 75% 10.0 mph W16.1 kmh W 15.0 mph24.1 kmh 30.21 in1023.0 mb 0.00 in0.0 mm 0.00 in0.0 mm 0.07 in1.8 mm
08:55 AM 30.3°F-0.9°C 22.3°F-5.4°C 72% 4.0 mph W6.4 kmh W 15.0 mph24.1 kmh 30.21 in1023.0 mb 0.00 in0.0 mm 0.00 in0.0 mm 0.07 in1.8 mm
09:00 AM 30.6°F-0.8°C 22.6°F-5.2°C 72% 6.0 mph WSW9.7 kmh WSW 15.0 mph24.1 kmh 30.21 in1023.0 mb 0.00 in0.0 mm 0.00 in0.0 mm 0.07 in1.8 mm
09:05 AM 30.8°F-0.7°C 22.4°F-5.3°C 71% 7.0 mph WSW11.3 kmh WSW 15.0 mph24.1 kmh 30.21 in1023.0 mb 0.00 in0.0 mm 0.00 in0.0 mm 0.07 in1.8 mm
09:10 AM 30.9°F-0.6°C 21.8°F-5.7°C 69% 8.0 mph WNW12.9 kmh WNW 13.0 mph20.9 kmh 30.21 in1023.0 mb 0.00 in0.0 mm 0.00 in0.0 mm 0.07 in1.8 mm
09:15 AM 31.1°F-0.5°C 21.7°F-5.7°C 68% 5.0 mph W8.0 kmh W 15.0 mph24.1 kmh 30.21 in1023.0 mb 0.00 in0.0 mm 0.00 in0.0 mm 0.07 in1.8 mm
09:20 AM 31.2°F-0.4°C 21.4°F-5.9°C 67% 10.0 mph WSW16.1 kmh WSW 15.0 mph24.1 kmh 30.21 in1023.0 mb 0.00 in0.0 mm 0.00 in0.0 mm 0.07 in1.8 mm
09:25 AM 31.4°F-0.3°C 20.9°F-6.2°C 65% 7.0 mph WSW11.3 kmh WSW 15.0 mph24.1 kmh 30.21 in1023.0 mb 0.00 in0.0 mm 0.00 in0.0 mm 0.07 in1.8 mm
09:30 AM 31.7°F-0.2°C 21.5°F-5.8°C 66% 9.0 mph WSW14.5 kmh WSW 15.0 mph24.1 kmh 30.21 in1023.0 mb 0.00 in0.0 mm 0.00 in0.0 mm 0.07 in1.8 mm
09:35 AM 31.9°F-0.1°C 21.3°F-5.9°C 65% 9.0 mph WSW14.5 kmh WSW 19.0 mph30.6 kmh 30.21 in1023.0 mb 0.00 in0.0 mm 0.00 in0.0 mm 0.07 in1.8 mm
09:40 AM 32.1°F0.1°C 21.1°F-6.1°C 64% 9.0 mph WSW14.5 kmh WSW 19.0 mph30.6 kmh 30.21 in1023.0 mb 0.00 in0.0 mm 0.00 in0.0 mm 0.07 in1.8 mm
09:45 AM 32.0°F0.0°C 21.0°F-6.1°C 64% 12.0 mph W19.3 kmh W 19.0 mph30.6 kmh 30.21 in1023.0 mb 0.00 in0.0 mm 0.00 in0.0 mm 0.07 in1.8 mm
09:50 AM 32.1°F0.1°C 20.4°F-6.4°C 62% 8.0 mph WSW12.9 kmh WSW 19.0 mph30.6 kmh 30.21 in1023.0 mb 0.00 in0.0 mm 0.00 in0.0 mm 0.07 in1.8 mm
09:55 AM 32.4°F0.2°C 20.3°F-6.5°C 61% 10.0 mph WSW16.1 kmh WSW 18.0 mph29.0 kmh 30.21 in1023.0 mb 0.00 in0.0 mm 0.00 in0.0 mm 0.07 in1.8 mm
10:00 AM 32.7°F0.4°C 19.7°F-6.8°C 59% 7.0 mph W11.3 kmh W 18.0 mph29.0 kmh 30.21 in1023.0 mb 0.00 in0.0 mm 0.00 in0.0 mm 0.07 in1.8 mm
10:05 AM 32.7°F0.4°C 18.9°F-7.3°C 57% 12.0 mph W19.3 kmh W 13.0 mph20.9 kmh 30.21 in1023.0 mb 0.00 in0.0 mm 0.00 in0.0 mm 0.07 in1.8 mm
10:10 AM 33.1°F0.6°C 20.5°F-6.4°C 60% 16.0 mph WSW25.7 kmh WSW 17.0 mph27.4 kmh 30.21 in1023.0 mb 0.00 in0.0 mm 0.00 in0.0 mm 0.07 in1.8 mm
10:15 AM 33.3°F0.7°C 20.7°F-6.3°C 60% 8.0 mph WSW12.9 kmh WSW 17.0 mph27.4 kmh 30.21 in1023.0 mb 0.00 in0.0 mm 0.00 in0.0 mm 0.07 in1.8 mm
10:20 AM 33.0°F0.6°C 19.6°F-6.9°C 58% 6.0 mph WNW9.7 kmh WNW 17.0 mph27.4 kmh 30.22 in1023.4 mb 0.00 in0.0 mm 0.00 in0.0 mm 0.07 in1.8 mm
10:25 AM 32.3°F0.2°C 18.1°F-7.7°C 56% 6.0 mph WSW9.7 kmh WSW 17.0 mph27.4 kmh 30.22 in1023.4 mb 0.00 in0.0 mm 0.00 in0.0 mm 0.07 in1.8 mm
10:30 AM 32.6°F0.3°C 18.8°F-7.3°C 57% 12.0 mph W19.3 kmh W 14.0 mph22.5 kmh 30.22 in1023.4 mb 0.00 in0.0 mm 0.00 in0.0 mm 0.07 in1.8 mm
10:35 AM 33.2°F0.7°C 19.8°F-6.8°C 58% 8.0 mph WSW12.9 kmh WSW 14.0 mph22.5 kmh 30.22 in1023.4 mb 0.00 in0.0 mm 0.00 in0.0 mm 0.07 in1.8 mm
10:40 AM 33.6°F0.9°C 20.2°F-6.6°C 58% 11.0 mph W17.7 kmh W 13.0 mph20.9 kmh 30.22 in1023.4 mb 0.00 in0.0 mm 0.00 in0.0 mm 0.07 in1.8 mm
10:45 AM 33.4°F0.8°C 19.1°F-7.2°C 56% 12.0 mph WSW19.3 kmh WSW 15.0 mph24.1 kmh 30.22 in1023.4 mb 0.00 in0.0 mm 0.00 in0.0 mm 0.07 in1.8 mm
10:50 AM 33.1°F0.6°C 18.4°F-7.6°C 55% 6.0 mph W9.7 kmh W 15.0 mph24.1 kmh 30.22 in1023.4 mb 0.00 in0.0 mm 0.00 in0.0 mm 0.07 in1.8 mm
10:55 AM 32.8°F0.4°C 18.1°F-7.7°C 55% 3.0 mph W4.8 kmh W 15.0 mph24.1 kmh 30.22 in1023.4 mb 0.00 in0.0 mm 0.00 in0.0 mm 0.07 in1.8 mm
11:00 AM 33.1°F0.6°C 18.8°F-7.3°C 56% 6.0 mph W9.7 kmh W 16.0 mph25.7 kmh 30.22 in1023.4 mb 0.00 in0.0 mm 0.00 in0.0 mm 0.07 in1.8 mm
11:05 AM 33.9°F1.1°C 19.6°F-6.9°C 56% 9.0 mph WSW14.5 kmh WSW 16.0 mph25.7 kmh 30.22 in1023.4 mb 0.00 in0.0 mm 0.00 in0.0 mm 0.07 in1.8 mm
11:10 AM 33.7°F0.9°C 19.0°F-7.2°C 55% 8.0 mph WNW12.9 kmh WNW 16.0 mph25.7 kmh 30.22 in1023.4 mb 0.00 in0.0 mm 0.00 in0.0 mm 0.07 in1.8 mm
11:15 AM 33.3°F0.7°C 18.6°F-7.4°C 55% 9.0 mph WNW14.5 kmh WNW 16.0 mph25.7 kmh 30.22 in1023.4 mb 0.00 in0.0 mm 0.00 in0.0 mm 0.07 in1.8 mm
11:20 AM 33.8°F1.0°C 19.1°F-7.2°C 55% 5.0 mph W8.0 kmh W 15.0 mph24.1 kmh 30.22 in1023.4 mb 0.00 in0.0 mm 0.00 in0.0 mm 0.07 in1.8 mm
11:25 AM 33.9°F1.1°C 19.2°F-7.1°C 55% 10.0 mph W16.1 kmh W 15.0 mph24.1 kmh 30.22 in1023.4 mb 0.00 in0.0 mm 0.00 in0.0 mm 0.07 in1.8 mm
11:30 AM 33.5°F0.8°C 18.8°F-7.3°C 55% 9.0 mph WNW14.5 kmh WNW 14.0 mph22.5 kmh 30.23 in1023.7 mb 0.00 in0.0 mm 0.00 in0.0 mm 0.07 in1.8 mm
11:35 AM 33.8°F1.0°C 19.1°F-7.2°C 55% 10.0 mph WNW16.1 kmh WNW 14.0 mph22.5 kmh 30.22 in1023.4 mb 0.00 in0.0 mm 0.00 in0.0 mm 0.07 in1.8 mm
11:40 AM 33.7°F0.9°C 19.4°F-7.0°C 56% 7.0 mph WSW11.3 kmh WSW 14.0 mph22.5 kmh 30.22 in1023.4 mb 0.00 in0.0 mm 0.00 in0.0 mm 0.07 in1.8 mm
11:45 AM 34.1°F1.2°C 19.8°F-6.8°C 56% 8.0 mph WSW12.9 kmh WSW 14.0 mph22.5 kmh 30.22 in1023.4 mb 0.00 in0.0 mm 0.00 in0.0 mm 0.07 in1.8 mm
11:50 AM 34.1°F1.2°C 19.8°F-6.8°C 56% 11.0 mph WNW17.7 kmh WNW 16.0 mph25.7 kmh 30.22 in1023.4 mb 0.00 in0.0 mm 0.00 in0.0 mm 0.07 in1.8 mm
11:55 AM 34.7°F1.5°C 19.5°F-6.9°C 54% 10.0 mph WNW16.1 kmh WNW 16.0 mph25.7 kmh 30.22 in1023.4 mb 0.00 in0.0 mm 0.00 in0.0 mm 0.07 in1.8 mm
12:00 PM 35.1°F1.7°C 19.8°F-6.8°C 54% 6.0 mph W9.7 kmh W 16.0 mph25.7 kmh 30.22 in1023.4 mb 0.00 in0.0 mm 0.00 in0.0 mm 0.07 in1.8 mm
12:05 PM 35.0°F1.7°C 20.6°F-6.3°C 56% 12.0 mph WSW19.3 kmh WSW 16.0 mph25.7 kmh 30.22 in1023.4 mb 0.00 in0.0 mm 0.00 in0.0 mm 0.07 in1.8 mm
12:10 PM 34.9°F1.6°C 21.4°F-5.9°C 58% 8.0 mph WSW12.9 kmh WSW 15.0 mph24.1 kmh 30.22 in1023.4 mb 0.00 in0.0 mm 0.00 in0.0 mm 0.07 in1.8 mm
12:15 PM 35.6°F2.0°C 21.2°F-6.0°C 56% 6.0 mph W9.7 kmh W 15.0 mph24.1 kmh 30.21 in1023.0 mb 0.00 in0.0 mm 0.00 in0.0 mm 0.07 in1.8 mm
12:20 PM 35.1°F1.7°C 20.7°F-6.3°C 56% 8.0 mph W12.9 kmh W 15.0 mph24.1 kmh 30.21 in1023.0 mb 0.00 in0.0 mm 0.00 in0.0 mm 0.07 in1.8 mm
12:25 PM 34.9°F1.6°C 20.5°F-6.4°C 56% 7.0 mph WSW11.3 kmh WSW 15.0 mph24.1 kmh 30.22 in1023.4 mb 0.00 in0.0 mm 0.00 in0.0 mm 0.07 in1.8 mm
12:30 PM 35.5°F1.9°C 21.5°F-5.8°C 57% 4.0 mph WSW6.4 kmh WSW 15.0 mph24.1 kmh 30.21 in1023.0 mb 0.00 in0.0 mm 0.00 in0.0 mm 0.07 in1.8 mm
12:35 PM 35.2°F1.8°C 20.8°F-6.2°C 56% 7.0 mph WSW11.3 kmh WSW 15.0 mph24.1 kmh 30.21 in1023.0 mb 0.00 in0.0 mm 0.00 in0.0 mm 0.07 in1.8 mm
12:40 PM 35.2°F1.8°C 20.8°F-6.2°C 56% 5.0 mph WSW8.0 kmh WSW 14.0 mph22.5 kmh 30.21 in1023.0 mb 0.00 in0.0 mm 0.00 in0.0 mm 0.07 in1.8 mm
12:45 PM 35.5°F1.9°C 21.5°F-5.8°C 57% 3.0 mph SW4.8 kmh SW 14.0 mph22.5 kmh 30.21 in1023.0 mb 0.00 in0.0 mm 0.00 in0.0 mm 0.07 in1.8 mm
12:50 PM 36.0°F2.2°C 22.0°F-5.6°C 57% 7.0 mph WSW11.3 kmh WSW 10.0 mph16.1 kmh 30.21 in1023.0 mb 0.00 in0.0 mm 0.00 in0.0 mm 0.07 in1.8 mm
12:55 PM 36.1°F2.3°C 22.1°F-5.5°C 57% 4.0 mph WSW6.4 kmh WSW 10.0 mph16.1 kmh 30.21 in1023.0 mb 0.00 in0.0 mm 0.00 in0.0 mm 0.07 in1.8 mm
01:00 PM 35.7°F2.1°C 21.3°F-5.9°C 56% 4.0 mph SW6.4 kmh SW 10.0 mph16.1 kmh 30.21 in1023.0 mb 0.00 in0.0 mm 0.00 in0.0 mm 0.07 in1.8 mm
01:05 PM 36.4°F2.4°C 22.8°F-5.1°C 58% 4.0 mph WSW6.4 kmh WSW 12.0 mph19.3 kmh 30.21 in1023.0 mb 0.00 in0.0 mm 0.00 in0.0 mm 0.07 in1.8 mm
01:10 PM 37.2°F2.9°C 23.1°F-4.9°C 57% 6.0 mph SW9.7 kmh SW 12.0 mph19.3 kmh 30.20 in1022.7 mb 0.00 in0.0 mm 0.00 in0.0 mm 0.07 in1.8 mm
01:15 PM 36.9°F2.7°C 22.8°F-5.1°C 57% 5.0 mph WSW8.0 kmh WSW 12.0 mph19.3 kmh 30.21 in1023.0 mb 0.00 in0.0 mm 0.00 in0.0 mm 0.07 in1.8 mm
01:20 PM 37.0°F2.8°C 23.8°F-4.6°C 59% 7.0 mph W11.3 kmh W 12.0 mph19.3 kmh 30.21 in1023.0 mb 0.00 in0.0 mm 0.00 in0.0 mm 0.07 in1.8 mm
01:25 PM 37.3°F2.9°C 23.6°F-4.7°C 58% 7.0 mph WSW11.3 kmh WSW 10.0 mph16.1 kmh 30.20 in1022.7 mb 0.00 in0.0 mm 0.00 in0.0 mm 0.07 in1.8 mm
01:30 PM 37.8°F3.2°C 23.7°F-4.6°C 57% 7.0 mph SW11.3 kmh SW 14.0 mph22.5 kmh 30.20 in1022.7 mb 0.00 in0.0 mm 0.00 in0.0 mm 0.07 in1.8 mm
01:35 PM 37.4°F3.0°C 23.3°F-4.8°C 57% 6.0 mph W9.7 kmh W 14.0 mph22.5 kmh 30.20 in1022.7 mb 0.00 in0.0 mm 0.00 in0.0 mm 0.07 in1.8 mm
01:40 PM 38.0°F3.3°C 24.7°F-4.1°C 59% 9.0 mph WSW14.5 kmh WSW 14.0 mph22.5 kmh 30.20 in1022.7 mb 0.00 in0.0 mm 0.00 in0.0 mm 0.07 in1.8 mm
01:45 PM 37.7°F3.2°C 23.1°F-4.9°C 56% 5.0 mph WSW8.0 kmh WSW 14.0 mph22.5 kmh 30.20 in1022.7 mb 0.00 in0.0 mm 0.00 in0.0 mm 0.07 in1.8 mm
01:50 PM 37.8°F3.2°C 23.7°F-4.6°C 57% 3.0 mph WSW4.8 kmh WSW 11.0 mph17.7 kmh 30.20 in1022.7 mb 0.00 in0.0 mm 0.00 in0.0 mm 0.07 in1.8 mm
01:55 PM 38.5°F3.6°C 25.2°F-3.8°C 59% 5.0 mph SW8.0 kmh SW 11.0 mph17.7 kmh 30.20 in1022.7 mb 0.00 in0.0 mm 0.00 in0.0 mm 0.07 in1.8 mm
02:00 PM 38.5°F3.6°C 23.9°F-4.5°C 56% 6.0 mph WSW9.7 kmh WSW 11.0 mph17.7 kmh 30.20 in1022.7 mb 0.00 in0.0 mm 0.00 in0.0 mm 0.07 in1.8 mm
02:05 PM 38.3°F3.5°C 24.6°F-4.1°C 58% 5.0 mph W8.0 kmh W 12.0 mph19.3 kmh 30.20 in1022.7 mb 0.00 in0.0 mm 0.00 in0.0 mm 0.07 in1.8 mm
02:10 PM 37.8°F3.2°C 23.7°F-4.6°C 57% 9.0 mph W14.5 kmh W 12.0 mph19.3 kmh 30.20 in1022.7 mb 0.00 in0.0 mm 0.00 in0.0 mm 0.07 in1.8 mm
02:15 PM 38.3°F3.5°C 25.4°F-3.7°C 60% 3.0 mph WNW4.8 kmh WNW 12.0 mph19.3 kmh 30.20 in1022.7 mb 0.00 in0.0 mm 0.00 in0.0 mm 0.07 in1.8 mm
02:20 PM 38.6°F3.7°C 24.0°F-4.4°C 56% 3.0 mph W4.8 kmh W 12.0 mph19.3 kmh 30.19 in1022.4 mb 0.00 in0.0 mm 0.00 in0.0 mm 0.07 in1.8 mm
02:25 PM 38.3°F3.5°C 23.7°F-4.6°C 56% 3.0 mph WSW4.8 kmh WSW 10.0 mph16.1 kmh 30.19 in1022.4 mb 0.00 in0.0 mm 0.00 in0.0 mm 0.07 in1.8 mm
02:30 PM 38.6°F3.7°C 24.8°F-4.0°C 58% 11.0 mph WNW17.7 kmh WNW 13.0 mph20.9 kmh 30.18 in1022.0 mb 0.00 in0.0 mm 0.00 in0.0 mm 0.07 in1.8 mm
02:35 PM 38.5°F3.6°C 23.4°F-4.8°C 55% 8.0 mph NW12.9 kmh NW 13.0 mph20.9 kmh 30.18 in1022.0 mb 0.00 in0.0 mm 0.00 in0.0 mm 0.07 in1.8 mm
02:40 PM 38.7°F3.7°C 25.4°F-3.7°C 59% 6.0 mph WNW9.7 kmh WNW 13.0 mph20.9 kmh 30.18 in1022.0 mb 0.00 in0.0 mm 0.00 in0.0 mm 0.07 in1.8 mm
02:45 PM 38.8°F3.8°C 25.4°F-3.7°C 59% 5.0 mph W8.0 kmh W 13.0 mph20.9 kmh 30.18 in1022.0 mb 0.00 in0.0 mm 0.00 in0.0 mm 0.07 in1.8 mm
02:50 PM 38.1°F3.4°C 23.9°F-4.5°C 57% 3.0 mph WNW4.8 kmh WNW 13.0 mph20.9 kmh 30.18 in1022.0 mb 0.00 in0.0 mm 0.00 in0.0 mm 0.07 in1.8 mm
02:55 PM 38.3°F3.5°C 25.0°F-3.9°C 59% 2.0 mph WNW3.2 kmh WNW 13.0 mph20.9 kmh 30.17 in1021.7 mb 0.00 in0.0 mm 0.00 in0.0 mm 0.07 in1.8 mm
03:00 PM 39.2°F4.0°C 25.8°F-3.4°C 59% 7.0 mph SW11.3 kmh SW 12.0 mph19.3 kmh 30.17 in1021.7 mb 0.00 in0.0 mm 0.00 in0.0 mm 0.07 in1.8 mm
03:05 PM 39.0°F3.9°C 25.2°F-3.8°C 58% 8.0 mph WSW12.9 kmh WSW 12.0 mph19.3 kmh 30.17 in1021.7 mb 0.00 in0.0 mm 0.00 in0.0 mm 0.07 in1.8 mm
03:10 PM 38.7°F3.7°C 24.9°F-3.9°C 58% 5.0 mph NW8.0 kmh NW 11.0 mph17.7 kmh 30.17 in1021.7 mb 0.00 in0.0 mm 0.00 in0.0 mm 0.07 in1.8 mm
03:15 PM 39.3°F4.1°C 25.9°F-3.4°C 59% 5.0 mph WNW8.0 kmh WNW 11.0 mph17.7 kmh 30.17 in1021.7 mb 0.00 in0.0 mm 0.00 in0.0 mm 0.07 in1.8 mm
03:20 PM 39.0°F3.9°C 24.8°F-4.0°C 57% 4.0 mph WSW6.4 kmh WSW 10.0 mph16.1 kmh 30.17 in1021.7 mb 0.00 in0.0 mm 0.00 in0.0 mm 0.07 in1.8 mm
03:25 PM 39.6°F4.2°C 26.6°F-3.0°C 60% 7.0 mph NW11.3 kmh NW 10.0 mph16.1 kmh 30.17 in1021.7 mb 0.00 in0.0 mm 0.00 in0.0 mm 0.07 in1.8 mm
03:30 PM 39.3°F4.1°C 25.1°F-3.8°C 57% 5.0 mph WSW8.0 kmh WSW 8.0 mph12.9 kmh 30.16 in1021.3 mb 0.00 in0.0 mm 0.00 in0.0 mm 0.07 in1.8 mm
03:35 PM 40.1°F4.5°C 26.2°F-3.2°C 58% 4.0 mph W6.4 kmh W 11.0 mph17.7 kmh 30.16 in1021.3 mb 0.00 in0.0 mm 0.00 in0.0 mm 0.07 in1.8 mm
03:40 PM 40.0°F4.4°C 26.1°F-3.3°C 58% 2.0 mph W3.2 kmh W 11.0 mph17.7 kmh 30.16 in1021.3 mb 0.00 in0.0 mm 0.00 in0.0 mm 0.07 in1.8 mm
03:45 PM 39.9°F4.4°C 25.6°F-3.6°C 57% 5.0 mph WSW8.0 kmh WSW 11.0 mph17.7 kmh 30.16 in1021.3 mb 0.00 in0.0 mm 0.00 in0.0 mm 0.07 in1.8 mm
03:50 PM 40.0°F4.4°C 26.6°F-3.0°C 59% 6.0 mph NW9.7 kmh NW 11.0 mph17.7 kmh 30.16 in1021.3 mb 0.00 in0.0 mm 0.00 in0.0 mm 0.07 in1.8 mm
03:55 PM 40.1°F4.5°C 25.8°F-3.4°C 57% 3.0 mph N4.8 kmh N 8.0 mph12.9 kmh 30.16 in1021.3 mb 0.00 in0.0 mm 0.00 in0.0 mm 0.07 in1.8 mm
04:00 PM 40.4°F4.7°C 26.5°F-3.1°C 58% 1.0 mph NW1.6 kmh NW 8.0 mph12.9 kmh 30.15 in1021.0 mb 0.00 in0.0 mm 0.00 in0.0 mm 0.07 in1.8 mm
04:05 PM 40.1°F4.5°C 25.4°F-3.7°C 56% 2.0 mph NW3.2 kmh NW 9.0 mph14.5 kmh 30.15 in1021.0 mb 0.00 in0.0 mm 0.00 in0.0 mm 0.07 in1.8 mm
04:10 PM 40.0°F4.4°C 26.1°F-3.3°C 58% 5.0 mph WNW8.0 kmh WNW 9.0 mph14.5 kmh 30.15 in1021.0 mb 0.00 in0.0 mm 0.00 in0.0 mm 0.07 in1.8 mm
04:15 PM 39.8°F4.3°C 26.8°F-2.9°C 60% Calm Calm 10.0 mph16.1 kmh 30.15 in1021.0 mb 0.00 in0.0 mm 0.00 in0.0 mm 0.07 in1.8 mm
04:20 PM 40.2°F4.6°C 27.2°F-2.7°C 60% 5.0 mph WNW8.0 kmh WNW 10.0 mph16.1 kmh 30.15 in1021.0 mb 0.00 in0.0 mm 0.00 in0.0 mm 0.07 in1.8 mm
04:25 PM 40.2°F4.6°C 26.8°F-2.9°C 59% 7.0 mph WNW11.3 kmh WNW 10.0 mph16.1 kmh 30.14 in1020.7 mb 0.00 in0.0 mm 0.00 in0.0 mm 0.07 in1.8 mm
04:30 PM 39.8°F4.3°C 26.4°F-3.1°C 59% 4.0 mph NW6.4 kmh NW 10.0 mph16.1 kmh 30.14 in1020.7 mb 0.00 in0.0 mm 0.00 in0.0 mm 0.07 in1.8 mm
04:35 PM 39.8°F4.3°C 26.8°F-2.9°C 60% 4.0 mph NW6.4 kmh NW 10.0 mph16.1 kmh 30.14 in1020.7 mb 0.00 in0.0 mm 0.00 in0.0 mm 0.07 in1.8 mm
04:40 PM 40.1°F4.5°C 26.7°F-2.9°C 59% 6.0 mph NNE9.7 kmh NNE 10.0 mph16.1 kmh 30.14 in1020.7 mb 0.00 in0.0 mm 0.00 in0.0 mm 0.07 in1.8 mm
04:45 PM 39.9°F4.4°C 26.9°F-2.8°C 60% 5.0 mph NW8.0 kmh NW 7.0 mph11.3 kmh 30.14 in1020.7 mb 0.00 in0.0 mm 0.00 in0.0 mm 0.07 in1.8 mm
04:50 PM 39.6°F4.2°C 26.2°F-3.2°C 59% 3.0 mph NW4.8 kmh NW 7.0 mph11.3 kmh 30.13 in1020.3 mb 0.00 in0.0 mm 0.00 in0.0 mm 0.07 in1.8 mm
04:55 PM 39.7°F4.3°C 26.7°F-2.9°C 60% 7.0 mph N11.3 kmh N 7.0 mph11.3 kmh 30.13 in1020.3 mb 0.00 in0.0 mm 0.00 in0.0 mm 0.07 in1.8 mm
05:00 PM 39.5°F4.2°C 26.1°F-3.3°C 59% 4.0 mph NNW6.4 kmh NNW 7.0 mph11.3 kmh 30.13 in1020.3 mb 0.00 in0.0 mm 0.00 in0.0 mm 0.07 in1.8 mm
05:05 PM 39.4°F4.1°C 26.8°F-2.9°C 61% 5.0 mph NW8.0 kmh NW 7.0 mph11.3 kmh 30.13 in1020.3 mb 0.00 in0.0 mm 0.00 in0.0 mm 0.07 in1.8 mm
05:10 PM 39.4°F4.1°C 26.4°F-3.1°C 60% 3.0 mph NE4.8 kmh NE 7.0 mph11.3 kmh 30.13 in1020.3 mb 0.00 in0.0 mm 0.00 in0.0 mm 0.07 in1.8 mm
05:15 PM 39.7°F4.3°C 26.3°F-3.2°C 59% 5.0 mph WNW8.0 kmh WNW 7.0 mph11.3 kmh 30.13 in1020.3 mb 0.00 in0.0 mm 0.00 in0.0 mm 0.07 in1.8 mm
05:20 PM 39.8°F4.3°C 26.0°F-3.3°C 58% 2.0 mph WNW3.2 kmh WNW 9.0 mph14.5 kmh 30.13 in1020.3 mb 0.00 in0.0 mm 0.00 in0.0 mm 0.07 in1.8 mm
05:25 PM 39.8°F4.3°C 26.0°F-3.3°C 58% 2.0 mph WNW3.2 kmh WNW 9.0 mph14.5 kmh 30.13 in1020.3 mb 0.00 in0.0 mm 0.00 in0.0 mm 0.07 in1.8 mm
05:30 PM 39.6°F4.2°C 25.3°F-3.7°C 57% 3.0 mph W4.8 kmh W 11.0 mph17.7 kmh 30.13 in1020.3 mb 0.00 in0.0 mm 0.00 in0.0 mm 0.07 in1.8 mm
05:35 PM 39.6°F4.2°C 24.9°F-3.9°C 56% 1.0 mph WNW1.6 kmh WNW 11.0 mph17.7 kmh 30.12 in1020.0 mb 0.00 in0.0 mm 0.00 in0.0 mm 0.07 in1.8 mm
05:40 PM 39.6°F4.2°C 25.8°F-3.4°C 58% Calm Calm -- 30.12 in1020.0 mb 0.00 in0.0 mm 0.00 in0.0 mm 0.07 in1.8 mm
05:45 PM 39.7°F4.3°C 25.9°F-3.4°C 58% Calm Calm -- 30.12 in1020.0 mb 0.00 in0.0 mm 0.00 in0.0 mm 0.07 in1.8 mm
05:50 PM 39.8°F4.3°C 26.0°F-3.3°C 58% Calm Calm -- 30.12 in1020.0 mb 0.00 in0.0 mm 0.00 in0.0 mm 0.07 in1.8 mm
05:55 PM 40.3°F4.6°C 26.9°F-2.8°C 59% Calm Calm -- 30.12 in1020.0 mb 0.00 in0.0 mm 0.00 in0.0 mm 0.07 in1.8 mm
06:00 PM 40.1°F4.5°C 25.8°F-3.4°C 57% Calm Calm -- 30.11 in1019.6 mb 0.00 in0.0 mm 0.00 in0.0 mm 0.07 in1.8 mm
06:05 PM 39.8°F4.3°C 26.0°F-3.3°C 58% Calm Calm -- 30.11 in1019.6 mb 0.00 in0.0 mm 0.00 in0.0 mm 0.07 in1.8 mm
06:10 PM 39.4°F4.1°C 25.2°F-3.8°C 57% Calm Calm -- 30.11 in1019.6 mb 0.00 in0.0 mm 0.00 in0.0 mm 0.07 in1.8 mm
06:15 PM 39.5°F4.2°C 26.1°F-3.3°C 59% Calm Calm -- 30.11 in1019.6 mb 0.00 in0.0 mm 0.00 in0.0 mm 0.07 in1.8 mm
06:20 PM 39.5°F4.2°C 26.1°F-3.3°C 59% Calm Calm -- 30.11 in1019.6 mb 0.00 in0.0 mm 0.00 in0.0 mm 0.07 in1.8 mm
06:25 PM 39.6°F4.2°C 26.6°F-3.0°C 60% Calm Calm -- 30.11 in1019.6 mb 0.00 in0.0 mm 0.00 in0.0 mm 0.07 in1.8 mm
06:30 PM 39.6°F4.2°C 26.2°F-3.2°C 59% Calm Calm -- 30.11 in1019.6 mb 0.00 in0.0 mm 0.00 in0.0 mm 0.07 in1.8 mm
06:35 PM 39.5°F4.2°C 26.9°F-2.8°C 61% Calm Calm -- 30.11 in1019.6 mb 0.00 in0.0 mm 0.00 in0.0 mm 0.07 in1.8 mm
06:40 PM 39.2°F4.0°C 25.8°F-3.4°C 59% Calm Calm -- 30.11 in1019.6 mb 0.00 in0.0 mm 0.00 in0.0 mm 0.07 in1.8 mm
06:45 PM 39.2°F4.0°C 25.8°F-3.4°C 59% Calm Calm -- 30.10 in1019.3 mb 0.00 in0.0 mm 0.00 in0.0 mm 0.07 in1.8 mm
06:50 PM 39.4°F4.1°C 26.4°F-3.1°C 60% Calm Calm -- 30.10 in1019.3 mb 0.00 in0.0 mm 0.00 in0.0 mm 0.07 in1.8 mm
06:55 PM 39.1°F3.9°C 25.3°F-3.7°C 58% Calm Calm -- 30.10 in1019.3 mb 0.00 in0.0 mm 0.00 in0.0 mm 0.07 in1.8 mm
07:00 PM 39.0°F3.9°C 25.2°F-3.8°C 58% Calm Calm -- 30.10 in1019.3 mb 0.00 in0.0 mm 0.00 in0.0 mm 0.07 in1.8 mm
07:05 PM 39.0°F3.9°C 25.6°F-3.6°C 59% Calm Calm -- 30.10 in1019.3 mb 0.00 in0.0 mm 0.00 in0.0 mm 0.07 in1.8 mm
07:10 PM 38.9°F3.8°C 25.5°F-3.6°C 59% Calm Calm -- 30.10 in1019.3 mb 0.00 in0.0 mm 0.00 in0.0 mm 0.07 in1.8 mm
07:15 PM 38.9°F3.8°C 25.5°F-3.6°C 59% Calm Calm -- 30.09 in1019.0 mb 0.00 in0.0 mm 0.00 in0.0 mm 0.07 in1.8 mm
07:20 PM 38.7°F3.7°C 26.2°F-3.2°C 61% Calm Calm -- 30.09 in1019.0 mb 0.00 in0.0 mm 0.00 in0.0 mm 0.07 in1.8 mm
07:25 PM 38.6°F3.7°C 26.1°F-3.3°C 61% Calm Calm -- 30.09 in1019.0 mb 0.00 in0.0 mm 0.00 in0.0 mm 0.07 in1.8 mm
07:30 PM 38.4°F3.6°C 25.9°F-3.4°C 61% Calm Calm -- 30.08 in1018.6 mb 0.00 in0.0 mm 0.00 in0.0 mm 0.07 in1.8 mm
07:35 PM 38.5°F3.6°C 26.0°F-3.3°C 61% Calm Calm -- 30.09 in1019.0 mb 0.00 in0.0 mm 0.00 in0.0 mm 0.07 in1.8 mm
07:40 PM 38.4°F3.6°C 25.9°F-3.4°C 61% Calm Calm -- 30.08 in1018.6 mb 0.00 in0.0 mm 0.00 in0.0 mm 0.07 in1.8 mm
07:45 PM 38.4°F3.6°C 25.9°F-3.4°C 61% Calm Calm -- 30.09 in1019.0 mb 0.00 in0.0 mm 0.00 in0.0 mm 0.07 in1.8 mm
07:50 PM 38.3°F3.5°C 25.4°F-3.7°C 60% Calm Calm -- 30.08 in1018.6 mb 0.00 in0.0 mm 0.00 in0.0 mm 0.07 in1.8 mm
07:55 PM 38.2°F3.4°C 25.7°F-3.5°C 61% Calm Calm -- 30.08 in1018.6 mb 0.00 in0.0 mm 0.00 in0.0 mm 0.07 in1.8 mm
08:00 PM 38.1°F3.4°C 25.6°F-3.6°C 61% Calm Calm -- 30.09 in1019.0 mb 0.00 in0.0 mm 0.00 in0.0 mm 0.07 in1.8 mm
08:05 PM 38.0°F3.3°C 25.9°F-3.4°C 62% Calm Calm -- 30.08 in1018.6 mb 0.00 in0.0 mm 0.00 in0.0 mm 0.07 in1.8 mm
08:10 PM 37.7°F3.2°C 26.0°F-3.3°C 63% Calm Calm -- 30.08 in1018.6 mb 0.00 in0.0 mm 0.00 in0.0 mm 0.07 in1.8 mm
08:15 PM 37.5°F3.1°C 26.2°F-3.2°C 64% Calm Calm -- 30.08 in1018.6 mb 0.00 in0.0 mm 0.00 in0.0 mm 0.07 in1.8 mm
08:20 PM 37.3°F2.9°C 26.1°F-3.3°C 64% Calm Calm -- 30.08 in1018.6 mb 0.00 in0.0 mm 0.00 in0.0 mm 0.07 in1.8 mm
08:25 PM 37.1°F2.8°C 25.9°F-3.4°C 64% Calm Calm -- 30.08 in1018.6 mb 0.00 in0.0 mm 0.00 in0.0 mm 0.07 in1.8 mm
08:30 PM 36.9°F2.7°C 26.1°F-3.3°C 65% Calm Calm -- 30.07 in1018.3 mb 0.00 in0.0 mm 0.00 in0.0 mm 0.07 in1.8 mm
08:35 PM 36.8°F2.7°C 26.0°F-3.3°C 65% Calm Calm -- 30.08 in1018.6 mb 0.00 in0.0 mm 0.00 in0.0 mm 0.07 in1.8 mm
08:40 PM 36.7°F2.6°C 25.9°F-3.4°C 65% Calm Calm -- 30.08 in1018.6 mb 0.00 in0.0 mm 0.00 in0.0 mm 0.07 in1.8 mm
08:45 PM 36.6°F2.6°C 26.2°F-3.2°C 66% Calm Calm -- 30.08 in1018.6 mb 0.00 in0.0 mm 0.00 in0.0 mm 0.07 in1.8 mm
08:50 PM 36.5°F2.5°C 26.1°F-3.3°C 66% Calm Calm -- 30.08 in1018.6 mb 0.00 in0.0 mm 0.00 in0.0 mm 0.07 in1.8 mm
08:55 PM 36.4°F2.4°C 26.0°F-3.3°C 66% Calm Calm -- 30.08 in1018.6 mb 0.00 in0.0 mm 0.00 in0.0 mm 0.07 in1.8 mm
09:00 PM 36.3°F2.4°C 25.9°F-3.4°C 66% Calm Calm -- 30.07 in1018.3 mb 0.00 in0.0 mm 0.00 in0.0 mm 0.07 in1.8 mm
09:05 PM 36.2°F2.3°C 25.8°F-3.4°C 66% Calm Calm -- 30.07 in1018.3 mb 0.00 in0.0 mm 0.00 in0.0 mm 0.07 in1.8 mm
09:10 PM 36.1°F2.3°C 26.1°F-3.3°C 67% Calm Calm -- 30.07 in1018.3 mb 0.00 in0.0 mm 0.00 in0.0 mm 0.07 in1.8 mm
09:15 PM 36.1°F2.3°C 26.1°F-3.3°C 67% Calm Calm -- 30.07 in1018.3 mb 0.00 in0.0 mm 0.00 in0.0 mm 0.07 in1.8 mm
09:20 PM 36.0°F2.2°C 26.0°F-3.3°C 67% Calm Calm -- 30.07 in1018.3 mb 0.00 in0.0 mm 0.00 in0.0 mm 0.07 in1.8 mm
09:25 PM 35.9°F2.2°C 26.2°F-3.2°C 68% Calm Calm -- 30.07 in1018.3 mb 0.00 in0.0 mm 0.00 in0.0 mm 0.07 in1.8 mm
09:30 PM 35.9°F2.2°C 26.2°F-3.2°C 68% Calm Calm -- 30.07 in1018.3 mb 0.00 in0.0 mm 0.00 in0.0 mm 0.07 in1.8 mm
09:35 PM 35.9°F2.2°C 26.2°F-3.2°C 68% Calm Calm -- 30.07 in1018.3 mb 0.00 in0.0 mm 0.00 in0.0 mm 0.07 in1.8 mm
09:40 PM 35.9°F2.2°C 26.6°F-3.0°C 69% Calm Calm -- 30.07 in1018.3 mb 0.00 in0.0 mm 0.00 in0.0 mm 0.07 in1.8 mm
09:45 PM 35.8°F2.1°C 26.5°F-3.1°C 69% Calm Calm -- 30.07 in1018.3 mb 0.00 in0.0 mm 0.00 in0.0 mm 0.07 in1.8 mm
09:50 PM 35.8°F2.1°C 26.9°F-2.8°C 70% Calm Calm -- 30.07 in1018.3 mb 0.00 in0.0 mm 0.00 in0.0 mm 0.07 in1.8 mm
09:55 PM 35.9°F2.2°C 27.7°F-2.4°C 72% Calm Calm -- 30.07 in1018.3 mb 0.00 in0.0 mm 0.00 in0.0 mm 0.07 in1.8 mm
10:00 PM 35.9°F2.2°C 28.0°F-2.2°C 73% 1.0 mph S1.6 kmh S 2.0 mph3.2 kmh 30.07 in1018.3 mb 0.00 in0.0 mm 0.00 in0.0 mm 0.07 in1.8 mm
10:05 PM 36.0°F2.2°C 28.1°F-2.2°C 73% Calm Calm -- 30.07 in1018.3 mb 0.00 in0.0 mm 0.00 in0.0 mm 0.07 in1.8 mm
10:10 PM 36.1°F2.3°C 27.9°F-2.3°C 72% Calm Calm -- 30.06 in1017.9 mb 0.00 in0.0 mm 0.00 in0.0 mm 0.07 in1.8 mm
10:15 PM 36.2°F2.3°C 27.6°F-2.4°C 71% Calm Calm -- 30.06 in1017.9 mb 0.00 in0.0 mm 0.00 in0.0 mm 0.07 in1.8 mm
10:20 PM 36.4°F2.4°C 27.8°F-2.3°C 71% Calm Calm 4.0 mph6.4 kmh 30.06 in1017.9 mb 0.00 in0.0 mm 0.00 in0.0 mm 0.07 in1.8 mm
10:25 PM 36.6°F2.6°C 27.6°F-2.4°C 70% Calm Calm 4.0 mph6.4 kmh 30.06 in1017.9 mb 0.00 in0.0 mm 0.00 in0.0 mm 0.07 in1.8 mm
10:30 PM 36.9°F2.7°C 27.6°F-2.4°C 69% Calm Calm -- 30.06 in1017.9 mb 0.00 in0.0 mm 0.00 in0.0 mm 0.07 in1.8 mm
10:35 PM 37.2°F2.9°C 27.8°F-2.3°C 69% Calm Calm 2.0 mph3.2 kmh 30.06 in1017.9 mb 0.00 in0.0 mm 0.00 in0.0 mm 0.07 in1.8 mm
10:40 PM 37.4°F3.0°C 27.7°F-2.4°C 68% Calm Calm 2.0 mph3.2 kmh 30.06 in1017.9 mb 0.00 in0.0 mm 0.00 in0.0 mm 0.07 in1.8 mm
10:45 PM 37.7°F3.2°C 28.0°F-2.2°C 68% Calm Calm 3.0 mph4.8 kmh 30.06 in1017.9 mb 0.00 in0.0 mm 0.00 in0.0 mm 0.07 in1.8 mm
10:50 PM 37.9°F3.3°C 27.8°F-2.3°C 67% Calm Calm 4.0 mph6.4 kmh 30.05 in1017.6 mb 0.00 in0.0 mm 0.00 in0.0 mm 0.07 in1.8 mm
10:56 PM 38.2°F3.4°C 27.7°F-2.4°C 66% Calm Calm 2.0 mph3.2 kmh 30.05 in1017.6 mb 0.00 in0.0 mm 0.00 in0.0 mm 0.07 in1.8 mm
11:01 PM 38.3°F3.5°C 27.8°F-2.3°C 66% Calm Calm 1.0 mph1.6 kmh 30.05 in1017.6 mb 0.00 in0.0 mm 0.00 in0.0 mm 0.07 in1.8 mm
11:06 PM 38.4°F3.6°C 27.9°F-2.3°C 66% Calm Calm 5.0 mph8.0 kmh 30.05 in1017.6 mb 0.00 in0.0 mm 0.00 in0.0 mm 0.07 in1.8 mm
11:11 PM 38.5°F3.6°C 28.0°F-2.2°C 66% Calm Calm 4.0 mph6.4 kmh 30.04 in1017.3 mb 0.00 in0.0 mm 0.00 in0.0 mm 0.07 in1.8 mm
11:16 PM 38.6°F3.7°C 27.7°F-2.4°C 65% Calm Calm 3.0 mph4.8 kmh 30.04 in1017.3 mb 0.00 in0.0 mm 0.00 in0.0 mm 0.07 in1.8 mm
11:21 PM 38.6°F3.7°C 27.7°F-2.4°C 65% Calm Calm 2.0 mph3.2 kmh 30.04 in1017.3 mb 0.00 in0.0 mm 0.00 in0.0 mm 0.07 in1.8 mm
11:26 PM 38.6°F3.7°C 27.7°F-2.4°C 65% Calm Calm -- 30.04 in1017.3 mb 0.00 in0.0 mm 0.00 in0.0 mm 0.07 in1.8 mm
11:31 PM 38.6°F3.7°C 27.7°F-2.4°C 65% Calm Calm 4.0 mph6.4 kmh 30.04 in1017.3 mb 0.00 in0.0 mm 0.00 in0.0 mm 0.07 in1.8 mm
11:36 PM 38.7°F3.7°C 27.8°F-2.3°C 65% Calm Calm -- 30.04 in1017.3 mb 0.00 in0.0 mm 0.00 in0.0 mm 0.07 in1.8 mm
11:41 PM 38.7°F3.7°C 27.8°F-2.3°C 65% 1.0 mph SW1.6 kmh SW 11.0 mph17.7 kmh 30.04 in1017.3 mb 0.00 in0.0 mm 0.00 in0.0 mm 0.07 in1.8 mm
11:46 PM 38.8°F3.8°C 27.9°F-2.3°C 65% 4.0 mph SW6.4 kmh SW 11.0 mph17.7 kmh 30.04 in1017.3 mb 0.00 in0.0 mm 0.00 in0.0 mm 0.07 in1.8 mm
11:51 PM 38.9°F3.8°C 28.0°F-2.2°C 65% Calm Calm 11.0 mph17.7 kmh 30.04 in1017.3 mb 0.00 in0.0 mm 0.00 in0.0 mm 0.07 in1.8 mm
11:56 PM 38.9°F3.8°C 28.3°F-2.1°C 66% Calm Calm 11.0 mph17.7 kmh 30.04 in1017.3 mb 0.00 in0.0 mm 0.00 in0.0 mm 0.07 in1.8 mm